Tiempo atmosférico en la estación meteorológica de Pedraza de Alba, Salamanca (897 m.)



Fecha
DESCASC
Temp. máxima en grados centígrados (hora)
DESCASC
Temp. mínima en grados centígrados (hora)
DESCASC
Temp. media en grados centígrados
DESCASC
Racha de viento máxima en m/sg (hora)
DESCASC
Velocidad máxima media en intervalos de 10 minutos(hora)
DESCASC
Precipitaciones diarias en mm
DESCASC
Precipitaciones de 00:00 a 06:00 en mm
DESCASC
Precipitaciones de 06:00 a 12:00 en mm
DESCASC
Precipitaciones de 12:00 a 18:00 en mm
DESCASC
Precipitaciones de 18:00 a 24:00 en mm
DESCASC
27-01-2020 9.3 (13:50) 3.4 (04:50) 6.4 16.67 (14:10) 9.72 (13:30) 0 0 0 0 0
26-01-2020 8.4 (15:10) -0.1 (08:20) 4.1 5.83 (15:10) 3.06 (15:40) 0 0 0 0 0
25-01-2020 9.1 (14:50) 0.1 (00:00) 4.6 5 (16:10) 2.78 (16:20) 0.6 0.2 0.2 0 0.2
24-01-2020 8.7 (14:30) 1 (00:00) 4.8 4.17 (13:20) 2.22 (13:20) 2.6 0.4 2.2 0 0
23-01-2020 8 (14:30) 2.9 (00:00) 5.5 9.17 (15:20) 5 (15:40) 0 0 0 0 0
22-01-2020 7.1 (16:20) 1.2 (00:00) 4.1 9.44 (12:40) 5 (12:40) 0.2 0 0.2 0 0
21-01-2020 3.5 (17:20) -4.7 (-00:0) -0.6 12.22 (19:40) 7.5 (19:40) 0.4 0 0 0.2 0.2
20-01-2020 1.9 (14:20) -3.3 (-00:0) -0.7 11.94 (16:20) 7.78 (15:40) 0 0 0 0 0
19-01-2020 5.7 (15:30) -1.4 (-00:0) 2.1 16.39 (16:20) 9.72 (12:10) 2.8 2.8 0 0 0
18-01-2020 11.8 (15:10) 3.6 (00:00) 7.7 15 (15:40) 8.89 (17:20) 5.8 1.6 2.6 0 1.6
17-01-2020 9.8 (15:40) 3.7 (00:00) 6.8 10.56 (05:20) 5.28 (05:20) 2.6 0 2.6 0 0
16-01-2020 12.6 (14:10) 2.5 (00:00) 7.6 13.06 (19:50) 6.94 (19:30) 0.2 0 0 0 0.2
15-01-2020 10 (14:50) 5.5 (00:00) 7.8 12.5 (03:40) 6.39 (05:50) 2 0.2 0.2 1.6 0
14-01-2020 8.7 (16:50) -2.7 (-00:0) 3 9.17 (17:50) 5.28 (23:10) 0 0 0 0 0
13-01-2020 8.9 (16:30) -5.1 (-00:0) 1.9 8.33 (16:40) 4.44 (16:20) 0.2 0 0.2 0 0
12-01-2020 7 (15:40) -6.7 (08:40) 0.2 3.61 (12:40) 2.5 (12:40) 0.2 0 0.2 0 0
11-01-2020 5.7 (16:40) -5.1 (-00:0) 0.3 2.78 (16:20) 1.67 (17:10) 0 0 0 0 0
10-01-2020 6.3 (14:30) -4 (-00:0) 1.2 7.5 (16:40) 4.17 (16:40) 0 0 0 0 0
09-01-2020 12.8 (16:20) -0.9 (-00:0) 6 9.72 (17:30) 4.17 (17:40) 0.6 0 0 0 0.6
08-01-2020 10.4 (15:50) -5.4 (-00:0) 2.5 3.33 (16:10) 2.22 (16:20) 0.2 0 0.2 0 0
07-01-2020 7.7 (15:50) -5.7 (-00:0) 1 3.33 (14:50) 2.22 (14:50) 0 0 0 0 0
06-01-2020 13.7 (15:10) -5.3 (-00:0) 4.2 3.61 (16:20) 2.78 (16:20) 0.2 0.2 0 0 0
05-01-2020 1.9 (15:40) -4 (-00:0) -1.1 2.5 (13:20) 1.39 (13:30) 0.2 0 0.2 0 0
04-01-2020 4.6 (12:20) -3.3 (-00:0) 0.6 8.33 (17:50) 4.72 (18:00) 0 0 0 0 0
03-01-2020 8.9 (16:30) -1.6 (-00:0) 3.6 3.89 (15:30) 1.39 (15:10) 0 0 0 0 0
02-01-2020 13.6 (14:30) -2.7 (-00:0) 5.5 7.5 (15:10) 3.89 (15:20) 0 0 0 0 0
01-01-2020 14.9 (15:10) -3.4 (-00:0) 5.7 3.06 (15:50) 1.94 (15:50) 0 0 0 0 0
31-12-2019 11.8 (16:20) -3.1 (-00:0) 4.4 2.78 (12:50) 1.67 (12:50) 0 0 0 0 0
30-12-2019 -- (--) -- (--) -- -- (--) -- (--) -- 0 0.2 -- 0

Gráficas

Temp. máximas Temp. mínimas Temp. medias Precipitaciones Rachas de viento máximas Velocidades máximas media en intervalos de 10 minutos

Datos horarios

Fecha y hora oficial Temperatura (ºC) Velocidad del viento (km/h) Dirección del viento Racha (km/h) Dirección de racha Precipitación (mm) Presión (hPa) Tendencia (hPa) Humedad (%)
2020-01-28 23:00:00 9.3 9 Sudoeste 20 Sudoeste 0 -- -- 97
2020-01-28 22:00:00 9.4 12 Sudoeste 21 Sudoeste 0 -- -- 97
2020-01-28 21:00:00 9.4 11 Sudoeste 27 Sudoeste 0.4 -- -- 97
2020-01-28 20:00:00 9.5 13 Sudoeste 27 Sudoeste 0 -- -- 96
2020-01-28 19:00:00 9.6 14 Sudoeste 26 Sudoeste 0 -- -- 95
2020-01-28 18:00:00 9.8 16 Sudoeste 30 Sudoeste 0 -- -- 94
2020-01-28 17:00:00 9.8 19 Sudoeste 39 Sudoeste 0 -- -- 93
2020-01-28 16:00:00 10.3 18 Sudoeste 39 Sudoeste 0 -- -- 91
2020-01-28 15:00:00 10.5 21 Sudoeste 40 Sudoeste 0 -- -- 89
2020-01-28 14:00:00 10.9 20 Sudoeste 40 Sudoeste 0 -- -- 88
2020-01-28 13:00:00 10.7 18 Sudoeste 37 Sudoeste 0 -- -- 89
2020-01-28 12:00:00 10.4 20 Sudoeste 39 Sudoeste 0 -- -- 90
2020-01-28 11:00:00 10.1 18 Sudoeste 38 Sudoeste 0 -- -- 91
2020-01-28 10:00:00 9.4 15 Sudoeste 30 Sudoeste 0 -- -- 94
2020-01-28 09:00:00 8.8 14 Sudoeste 33 Sudoeste 0 -- -- 95
2020-01-28 08:00:00 8.7 15 Sudoeste 33 Sudoeste 0 -- -- 94
2020-01-28 07:00:00 8.6 18 Sudoeste 38 Sudoeste 0 -- -- 93
2020-01-28 06:00:00 8.7 17 Sudoeste 34 Sudoeste 0 -- -- 91
2020-01-28 05:00:00 8.6 19 Sudoeste 39 Sudoeste 0 -- -- 94
2020-01-28 04:00:00 8.6 19 Sudoeste 42 Sudoeste 0 -- -- 93
2020-01-28 03:00:00 8.9 21 Sudoeste 40 Sudoeste 0 -- -- 93
2020-01-28 02:00:00 9 21 Sudoeste 49 Sudoeste 0 -- -- 93
2020-01-28 01:00:00 8.9 23 Sudoeste 44 Sudoeste 0 -- -- 93
2020-01-28 00:00:00 8.6 18 Sudoeste 40 Sur 0 -- -- 93
2020-01-27 23:00:00 8.6 24 Sudoeste 56 Sudoeste 0 -- -- 92
2020-01-27 22:00:00 8.4 23 Sudoeste 44 Sudoeste 0 -- -- 91
2020-01-27 21:00:00 8 22 Sudoeste 45 Sudoeste 0 -- -- 92
2020-01-27 20:00:00 7.5 22 Sudoeste 41 Oeste 0 -- -- 93
2020-01-27 19:00:00 7.5 24 Sudoeste 48 Sudoeste 0 -- -- 90
2020-01-27 18:00:00 7.3 24 Sudoeste 58 Sudoeste 0 -- -- 87
2020-01-27 17:00:00 8 25 Sudoeste 58 Sudoeste 0 -- -- 81
2020-01-27 16:00:00 8.3 29 Sudoeste 55 Sudoeste 0 -- -- 76
2020-01-27 15:00:00 7.7 22 Sudoeste 60 Sudoeste 0 -- -- 79
2020-01-27 14:00:00 9.1 30 Sudoeste 59 Sudoeste 0 -- -- 74
2020-01-27 13:00:00 8.4 29 Sudoeste 54 Sudoeste 0 -- -- 82
2020-01-27 12:00:00 8.4 24 Sudoeste 44 Sudoeste 0 -- -- 77
2020-01-27 11:00:00 7.8 28 Sudoeste 51 Sudoeste 0 -- -- 81
2020-01-27 10:00:00 6.4 13 Sudoeste 29 Sudoeste 0 -- -- 78
2020-01-27 09:00:00 4.5 4 Sudoeste 27 Sudoeste 0 -- -- 83
2020-01-27 08:00:00 4.8 6 Sur 22 Sudoeste 0 -- -- 87
2020-01-27 07:00:00 4.2 5 Sur 18 Sur 0 -- -- 86
2020-01-27 06:00:00 4.8 8 Sudoeste 22 Sudoeste 0 -- -- 90
2020-01-27 05:00:00 4 9 Sur 23 Sudoeste 0 -- -- 91
2020-01-27 04:00:00 3.9 4 Sudoeste 18 Sur 0 -- -- 93
2020-01-27 03:00:00 4.5 9 Sudoeste 22 Sudoeste 0 -- -- 93
2020-01-27 02:00:00 4 7 Sudoeste 14 Sudoeste 0 -- -- 91
2020-01-27 01:00:00 3.6 5 Sudoeste 12 Sudoeste 0 -- -- 86
2020-01-27 00:00:00 4.3 4 Sur 14 Sur 0 -- -- 79
2020-01-26 23:00:00 5.4 6 Sudoeste 14 Sur 0 -- -- 81
2020-01-26 22:00:00 5.6 7 Sur 19 Sur 0 -- -- 81
2020-01-26 21:00:00 6.1 8 Sudoeste 15 Sudoeste 0 -- -- 82
2020-01-26 20:00:00 6.4 4 Sudoeste 14 Sudoeste 0 -- -- 81
2020-01-26 19:00:00 6.6 3 Sudoeste 10 Sudoeste 0 -- -- 77
2020-01-26 18:00:00 7.4 7 Sudoeste 16 Sudoeste 0 -- -- 71
2020-01-26 17:00:00 7.7 8 Oeste 16 Oeste 0 -- -- 70
2020-01-26 16:00:00 8 9 Sudoeste 21 Oeste 0 -- -- 65
2020-01-26 15:00:00 7.9 8 Oeste 20 Oeste 0 -- -- 64
2020-01-26 14:00:00 7.7 10 Oeste 19 Oeste 0 -- -- 65
2020-01-26 13:00:00 7.1 8 Oeste 19 Oeste 0 -- -- 69
2020-01-26 12:00:00 6.6 8 Sudoeste 16 Sudoeste 0 -- -- 77
2020-01-26 11:00:00 4.8 10 Sudoeste 17 Sudoeste 0 -- -- 90
2020-01-26 10:00:00 1.6 3 Sur 13 Sudoeste 0 -- -- 100
2020-01-26 09:00:00 0.1 3 Sur 9 Sudoeste 0 -- -- 99
2020-01-26 08:00:00 0.2 0 Calma 5 Sur 0 -- -- 97
2020-01-26 07:00:00 1.8 2 Sudoeste 7 Sudoeste 0 -- -- 96
2020-01-26 06:00:00 3.1 5 Sudoeste 14 Sudoeste 0 -- -- 97
2020-01-26 05:00:00 3.2 8 Sudoeste 13 Sudoeste 0 -- -- 98
2020-01-26 04:00:00 3.7 3 Sudoeste 5 Sudoeste 0 -- -- 96
2020-01-26 03:00:00 4.3 3 Sudoeste 9 Noroeste 0 -- -- 95
2020-01-26 02:00:00 4.5 4 Oeste 10 Noroeste 0 -- -- 95
2020-01-26 01:00:00 5 4 Oeste 8 Noroeste 0 -- -- 96
2020-01-26 00:00:00 5.1 2 Sudoeste 5 Oeste 0 -- -- 96
2020-01-25 23:00:00 5.1 0 Calma 3 Noroeste 0 -- -- 95
2020-01-25 22:00:00 5.3 0 Calma 6 Noroeste 0 -- -- 94
2020-01-25 21:00:00 5.4 4 Noroeste 15 Noroeste 0 -- -- 95
2020-01-25 20:00:00 5.9 7 Noroeste 18 Noroeste 0 -- -- 95
2020-01-25 19:00:00 6.1 6 Norte 15 Noroeste 0.2 -- -- 94
2020-01-25 18:00:00 6.7 8 Norte 13 Norte 0 -- -- 89
2020-01-25 17:00:00 7.5 7 Norte 18 Noroeste 0 -- -- 85
2020-01-25 16:00:00 8.7 6 Noroeste 16 Noroeste 0 -- -- 75
2020-01-25 15:00:00 8.7 5 Norte 11 Noroeste 0 -- -- 79
2020-01-25 14:00:00 8.5 4 Oeste 11 Noroeste 0 -- -- 79
2020-01-25 13:00:00 7.2 4 Noroeste 11 Noroeste 0 -- -- 82
2020-01-25 12:00:00 5.8 3 Oeste 8 Sudoeste 0 -- -- 89
2020-01-25 11:00:00 4.2 0 Calma 5 Sudoeste 0 -- -- 96
2020-01-25 10:00:00 3.5 0 Calma 9 Oeste 0.2 -- -- 97
2020-01-25 09:00:00 3.1 2 Sudoeste 4 Oeste 0 -- -- 97
2020-01-25 08:00:00 3.2 0 Calma 5 Nordeste 0 -- -- 95
2020-01-25 07:00:00 3.6 0 Calma 5 Noroeste 0 -- -- 96
2020-01-25 06:00:00 4.1 0 Calma 6 Nordeste 0 -- -- 96
2020-01-25 05:00:00 4.1 4 Nordeste 12 Este 0 -- -- 97
2020-01-25 04:00:00 2.1 0 Calma 4 Nordeste 0.2 -- -- 99
2020-01-25 03:00:00 0.8 0 Calma 2 Norte 0 -- -- 98
2020-01-25 02:00:00 0.6 0 Calma 3 Norte 0 -- -- 98
2020-01-25 01:00:00 0.1 0 Calma 2 Sur 0 -- -- 96
2020-01-25 00:00:00 1 0 Calma 4 Sudeste 0 -- -- 96
2020-01-24 23:00:00 1.6 0 Calma 4 Sur 0 -- -- 94
2020-01-24 22:00:00 3.1 2 Este 7 Norte 0 -- -- 91
2020-01-24 21:00:00 4.2 0 Calma 7 Sudeste 0 -- -- 91
2020-01-24 20:00:00 5.3 0 Calma 5 Noroeste 0 -- -- 91
2020-01-24 19:00:00 6.6 0 Calma 5 Nordeste 0 -- -- 85
2020-01-24 18:00:00 7.5 0 Calma 5 Norte 0 -- -- 82
2020-01-24 17:00:00 7.8 0 Calma 7 Nordeste 0 -- -- 74
2020-01-24 16:00:00 8.3 5 Norte 12 Oeste 0 -- -- 72
2020-01-24 15:00:00 8.4 5 Noroeste 12 Noroeste 0 -- -- 72
2020-01-24 14:00:00 7.8 5 Oeste 15 Sudoeste 0 -- -- 77
2020-01-24 13:00:00 6.9 6 Oeste 12 Sudoeste 0 -- -- 82
2020-01-24 12:00:00 5.5 3 Oeste 8 Sudoeste 0 -- -- 93
2020-01-24 11:00:00 5.3 0 Calma 5 Noroeste 0 -- -- 95
2020-01-24 10:00:00 3.1 0 Calma 0 Calma 0 -- -- 99
2020-01-24 09:00:00 2.8 0 Calma 3 Nordeste 0.2 -- -- 97
2020-01-24 08:00:00 3.5 0 Calma 4 Sudeste 0.6 -- -- 98
2020-01-24 07:00:00 3.2 0 Calma 5 Sudoeste 1.4 -- -- 98
2020-01-24 06:00:00 2.9 0 Calma 4 Sudeste 0.4 -- -- 97
2020-01-24 05:00:00 2.6 0 Calma 3 Nordeste 0 -- -- 95
2020-01-24 04:00:00 2 2 Sudeste 5 Sudoeste 0 -- -- 95
2020-01-24 03:00:00 1.9 0 Calma 6 Noroeste 0 -- -- 94
2020-01-24 02:00:00 2.3 3 Noroeste 6 Sudeste 0 -- -- 92
2020-01-24 01:00:00 2.6 0 Calma 8 Sur 0 -- -- 91
2020-01-24 00:00:00 2.9 0 Calma 9 Sudeste 0 -- -- 89
2020-01-23 23:00:00 4.3 2 Noroeste 6 Sudeste 0 -- -- 85
2020-01-23 22:00:00 4.8 0 Calma 8 Sudeste 0 -- -- 82
2020-01-23 21:00:00 4.6 0 Calma 6 Sudeste 0 -- -- 83
2020-01-23 20:00:00 5.3 2 Norte 21 Sudeste 0 -- -- 78
2020-01-23 19:00:00 6 6 Sur 20 Sur 0 -- -- 75
2020-01-23 18:00:00 6.3 9 Sudeste 26 Sudeste 0 -- -- 76
2020-01-23 17:00:00 7.2 13 Sudeste 29 Sudeste 0 -- -- 71
2020-01-23 16:00:00 7.4 13 Sudeste 33 Sudeste 0 -- -- 70
2020-01-23 15:00:00 7.6 16 Sudeste 28 Sudeste 0 -- -- 70
2020-01-23 14:00:00 7.4 13 Sudeste 25 Sudeste 0 -- -- 72
2020-01-23 13:00:00 6.9 13 Sudeste 21 Sudeste 0 -- -- 73
2020-01-23 12:00:00 6.5 11 Este 21 Este 0 -- -- 76
2020-01-23 11:00:00 4.7 4 Noroeste 8 Nordeste 0 -- -- 85
2020-01-23 10:00:00 4.3 0 Calma 16 Este 0 -- -- 81
2020-01-23 09:00:00 4.2 4 Este 15 Este 0 -- -- 80
2020-01-23 08:00:00 4.3 10 Sudeste 22 Sudeste 0 -- -- 80
2020-01-23 07:00:00 3.4 0 Calma 10 Sudeste 0 -- -- 84
2020-01-23 06:00:00 4.5 7 Sudeste 27 Sudeste 0 -- -- 80
2020-01-23 05:00:00 5.1 14 Sudeste 31 Sudeste 0 -- -- 80
2020-01-23 04:00:00 5.1 8 Sudeste 19 Sudeste 0 -- -- 79
2020-01-23 03:00:00 3.8 2 Este 6 Nordeste 0 -- -- 86
2020-01-23 02:00:00 3.8 4 Nordeste 8 Nordeste 0 -- -- 88
2020-01-23 01:00:00 3.8 4 Este 7 Este 0 -- -- 88
2020-01-23 00:00:00 3.9 3 Nordeste 15 Este 0 -- -- 87
2020-01-22 23:00:00 3.4 5 Este 10 Este 0 -- -- 89
2020-01-22 22:00:00 2.1 3 Sudeste 7 Nordeste 0 -- -- 90
2020-01-22 21:00:00 3.7 0 Calma 18 Nordeste 0 -- -- 83
2020-01-22 20:00:00 4.1 8 Este 15 Este 0 -- -- 85
2020-01-22 19:00:00 3 6 Este 10 Este 0 -- -- 85
2020-01-22 18:00:00 5.4 0 Calma 17 Este 0 -- -- 76
2020-01-22 17:00:00 7 12 Este 23 Este 0 -- -- 71
2020-01-22 16:00:00 6.7 12 Este 20 Este 0 -- -- 72
2020-01-22 15:00:00 6 9 Este 27 Este 0 -- -- 79
2020-01-22 14:00:00 6.2 11 Este 27 Este 0 -- -- 78
2020-01-22 13:00:00 5.7 15 Este 34 Nordeste 0 -- -- 82
2020-01-22 12:00:00 5.2 17 Este 32 Nordeste 0 -- -- 84
2020-01-22 11:00:00 3.4 13 Nordeste 21 Nordeste 0 -- -- 94
2020-01-22 10:00:00 1.9 4 Norte 14 Nordeste 0 -- -- 98
2020-01-22 09:00:00 1.6 9 Nordeste 17 Nordeste 0 -- -- 97
2020-01-22 08:00:00 1.6 10 Nordeste 17 Nordeste 0.2 -- -- 98
2020-01-22 07:00:00 2 10 Nordeste 16 Nordeste 0 -- -- 97
2020-01-22 06:00:00 1.9 3 Nordeste 13 Norte 0 -- -- 98
2020-01-22 05:00:00 1.7 7 Norte 18 Nordeste 0 -- -- 98
2020-01-22 04:00:00 1.7 12 Nordeste 23 Nordeste 0 -- -- 97
2020-01-22 03:00:00 1.7 8 Nordeste 18 Nordeste 0 -- -- 96
2020-01-22 02:00:00 1.3 5 Norte 21 Este 0 -- -- 96
2020-01-22 01:00:00 1.5 10 Nordeste 19 Nordeste 0 -- -- 95
2020-01-22 00:00:00 1.2 12 Norte 21 Nordeste 0 -- -- 94
2020-01-21 23:00:00 1.4 8 Nordeste 21 Nordeste 0 -- -- 94
2020-01-21 22:00:00 1.5 14 Nordeste 32 Nordeste 0 -- -- 94
2020-01-21 21:00:00 1.5 19 Nordeste 36 Nordeste 0 -- -- 92
2020-01-21 20:00:00 1.8 24 Nordeste 44 Nordeste 0.2 -- -- 94
2020-01-21 19:00:00 2.4 21 Nordeste 34 Nordeste 0 -- -- 95
2020-01-21 18:00:00 2.7 20 Nordeste 36 Nordeste 0 -- -- 88
2020-01-21 17:00:00 3.3 13 Nordeste 27 Nordeste 0 -- -- 86
2020-01-21 16:00:00 2.3 8 Nordeste 17 Nordeste 0 -- -- 91
2020-01-21 15:00:00 1.1 7 Nordeste 15 Nordeste 0 -- -- 95
2020-01-21 14:00:00 0.3 5 Este 13 Este 0.2 -- -- 94
2020-01-21 13:00:00 -0.2 8 Nordeste 16 Nordeste 0 -- -- 92
2020-01-21 12:00:00 -0.7 6 Nordeste 18 Nordeste 0 -- -- 91
2020-01-21 11:00:00 -2 4 Nordeste 6 Nordeste 0 -- -- 94
2020-01-21 10:00:00 -3.6 0 Calma 5 Norte 0 -- -- 97
2020-01-21 09:00:00 -4.6 2 Norte 5 Norte 0 -- -- 96
2020-01-21 08:00:00 -4 3 Norte 8 Este 0 -- -- 94
2020-01-21 07:00:00 -3 6 Este 13 Este 0 -- -- 95
2020-01-21 06:00:00 -3.3 5 Nordeste 9 Nordeste 0 -- -- 96
2020-01-21 05:00:00 -3.9 6 Nordeste 12 Nordeste 0 -- -- 95
2020-01-21 04:00:00 -4.3 6 Nordeste 17 Este 0 -- -- 92
2020-01-21 03:00:00 -3.3 4 Este 16 Nordeste 0 -- -- 93
2020-01-21 02:00:00 -2.2 11 Nordeste 31 Nordeste 0 -- -- 95
2020-01-21 01:00:00 -1.9 16 Nordeste 30 Nordeste 0 -- -- 96
2020-01-21 00:00:00 -1.5 17 Nordeste 32 Nordeste 0 -- -- 95
2020-01-20 23:00:00 -1.4 18 Nordeste 33 Nordeste 0 -- -- 94
2020-01-20 22:00:00 -0.3 14 Nordeste 27 Nordeste 0 -- -- 75
2020-01-20 21:00:00 -0.1 17 Nordeste 30 Nordeste 0 -- -- 74
2020-01-20 20:00:00 0.4 18 Nordeste 31 Nordeste 0 -- -- 70
2020-01-20 19:00:00 0.5 11 Nordeste 22 Nordeste 0 -- -- 74
2020-01-20 18:00:00 1 14 Nordeste 35 Este 0 -- -- 67
2020-01-20 17:00:00 1.3 20 Nordeste 43 Nordeste 0 -- -- 61
2020-01-20 16:00:00 1.7 25 Nordeste 42 Nordeste 0 -- -- 60
2020-01-20 15:00:00 1.1 24 Nordeste 40 Nordeste 0 -- -- 60
2020-01-20 14:00:00 1.3 20 Nordeste 36 Este 0 -- -- 61
2020-01-20 13:00:00 0 21 Nordeste 39 Este 0 -- -- 68
2020-01-20 12:00:00 -0.7 24 Nordeste 39 Nordeste 0 -- -- 71
2020-01-20 11:00:00 -0.9 18 Nordeste 32 Nordeste 0 -- -- 73
2020-01-20 10:00:00 -2.6 7 Nordeste 14 Este 0 -- -- 80
2020-01-20 09:00:00 -3.3 8 Nordeste 15 Este 0 -- -- 83
2020-01-20 08:00:00 -3 7 Nordeste 18 Este 0 -- -- 81
2020-01-20 07:00:00 -2.7 9 Nordeste 22 Este 0 -- -- 79
2020-01-20 06:00:00 -2.5 12 Nordeste 23 Nordeste 0 -- -- 78
2020-01-20 05:00:00 -2.1 14 Nordeste 31 Nordeste 0 -- -- 76
2020-01-20 04:00:00 -1.8 16 Nordeste 31 Nordeste 0 -- -- 76
2020-01-20 03:00:00 -1.5 17 Nordeste 31 Nordeste 0 -- -- 76
2020-01-20 02:00:00 -1 17 Nordeste 33 Nordeste 0 -- -- 75
2020-01-20 01:00:00 -1.5 8 Nordeste 19 Nordeste 0 -- -- 77
2020-01-20 00:00:00 -1.4 9 Nordeste 21 Nordeste 0 -- -- 80
2020-01-19 23:00:00 -0.9 13 Nordeste 30 Nordeste 0 -- -- 77
2020-01-19 22:00:00 -0.4 17 Nordeste 33 Nordeste 0 -- -- 73
2020-01-19 21:00:00 0 15 Nordeste 30 Nordeste 0 -- -- 69
2020-01-19 20:00:00 0.6 16 Nordeste 37 Nordeste 0 -- -- 72
2020-01-19 19:00:00 1.6 21 Nordeste 41 Norte 0 -- -- 68
2020-01-19 18:00:00 3 27 Nordeste 53 Nordeste 0 -- -- 63
2020-01-19 17:00:00 4.6 31 Nordeste 59 Nordeste 0 -- -- 58
2020-01-19 16:00:00 5.3 35 Nordeste 57 Nordeste 0 -- -- 57
2020-01-19 15:00:00 5.5 35 Nordeste 57 Nordeste 0 -- -- 59
2020-01-19 14:00:00 5.5 34 Nordeste 57 Nordeste 0 -- -- 57
2020-01-19 13:00:00 4.9 28 Nordeste 54 Nordeste 0 -- -- 67
2020-01-19 12:00:00 4.2 27 Nordeste 51 Nordeste 0 -- -- 78
2020-01-19 11:00:00 3.3 20 Nordeste 36 Norte 0 -- -- 89
2020-01-19 10:00:00 2.8 14 Norte 26 Norte 0 -- -- 93
2020-01-19 09:00:00 2 5 Norte 10 Norte 0 -- -- 98
2020-01-19 08:00:00 2.1 7 Norte 12 Norte 0 -- -- 98
2020-01-19 07:00:00 2.4 6 Nordeste 17 Noroeste 0 -- -- 97
2020-01-19 06:00:00 2.8 6 Norte 16 Norte 0 -- -- 99
2020-01-19 05:00:00 3.3 6 Noroeste 22 Noroeste 0 -- -- 98
2020-01-19 04:00:00 3.8 8 Noroeste 14 Noroeste 0 -- -- 97
2020-01-19 03:00:00 4 8 Noroeste 22 Noroeste 0.2 -- -- 96
2020-01-19 02:00:00 4.4 10 Noroeste 21 Noroeste 1 -- -- 96
2020-01-19 01:00:00 4.5 9 Noroeste 20 Oeste 1.6 -- -- 93
2020-01-19 00:00:00 4.8 6 Oeste 17 Sudoeste 0 -- -- 90
2020-01-18 23:00:00 4.9 9 Sudoeste 18 Oeste 0 -- -- 89
2020-01-18 22:00:00 5.7 9 Oeste 31 Noroeste 0 -- -- 90
2020-01-18 21:00:00 7 15 Oeste 31 Oeste 0.8 -- -- 88
2020-01-18 20:00:00 7.7 14 Oeste 45 Sudoeste 0.8 -- -- 87
2020-01-18 19:00:00 8.5 20 Sudoeste 44 Sudoeste 0 -- -- 85
2020-01-18 18:00:00 9.2 20 Sudoeste 54 Sudoeste 0 -- -- 85
2020-01-18 17:00:00 10.2 27 Sudoeste 51 Sudoeste 0 -- -- 82
2020-01-18 16:00:00 11.5 29 Sudoeste 54 Sudoeste 0 -- -- 76
2020-01-18 15:00:00 11.5 27 Sudoeste 53 Sudoeste 0 -- -- 77
2020-01-18 14:00:00 11.1 27 Sudoeste 44 Sudoeste 0 -- -- 81
2020-01-18 13:00:00 10.3 23 Sudoeste 37 Sudoeste 0 -- -- 85
2020-01-18 12:00:00 8.4 21 Sudoeste 31 Sudoeste 0 -- -- 90
2020-01-18 11:00:00 7.8 14 Sudoeste 27 Sudoeste 0 -- -- 91
2020-01-18 10:00:00 6.7 13 Sudoeste 23 Sudoeste 0 -- -- 88
2020-01-18 09:00:00 6.1 7 Sudoeste 21 Sudoeste 0 -- -- 89
2020-01-18 08:00:00 5.6 8 Sudoeste 27 Sur 0.8 -- -- 92
2020-01-18 07:00:00 4.9 13 Sur 28 Sur 1.8 -- -- 92
2020-01-18 06:00:00 4.8 6 Sur 14 Sur 1 -- -- 94
2020-01-18 05:00:00 4.8 4 Sur 7 Sur 0.6 -- -- 94
2020-01-18 04:00:00 5.3 0 Calma 18 Sudoeste 0 -- -- 88
2020-01-18 03:00:00 5.6 9 Sudoeste 19 Sudoeste 0 -- -- 87
2020-01-18 02:00:00 5.2 8 Sudoeste 15 Sudoeste 0 -- -- 90
2020-01-18 01:00:00 3.6 0 Calma 8 Sudoeste 0 -- -- 89
2020-01-18 00:00:00 4.2 5 Oeste 14 Sudoeste 0 -- -- 86
2020-01-17 23:00:00 3.8 0 Calma 8 Sudoeste 0 -- -- 88
2020-01-17 22:00:00 3.8 3 Sur 9 Sur 0 -- -- 87
2020-01-17 21:00:00 4 4 Sur 8 Sudeste 0 -- -- 86
2020-01-17 20:00:00 4.1 0 Calma 4 Sudeste 0 -- -- 84
2020-01-17 19:00:00 5.7 0 Calma 5 Este 0 -- -- 79
2020-01-17 18:00:00 7.8 2 Oeste 16 Noroeste 0 -- -- 68
2020-01-17 17:00:00 9.6 6 Noroeste 18 Noroeste 0 -- -- 60
2020-01-17 16:00:00 9.4 8 Oeste 23 Oeste 0 -- -- 63
2020-01-17 15:00:00 9.4 13 Oeste 23 Sudoeste 0 -- -- 59
2020-01-17 14:00:00 9.2 14 Oeste 30 Oeste 0 -- -- 63
2020-01-17 13:00:00 9 11 Oeste 23 Oeste 0 -- -- 70
2020-01-17 12:00:00 7.6 7 Oeste 19 Sudoeste 0 -- -- 88
2020-01-17 11:00:00 6.5 5 Oeste 27 Oeste 0 -- -- 94
2020-01-17 10:00:00 6.2 8 Oeste 22 Sudoeste 1.6 -- -- 95
2020-01-17 09:00:00 6.1 9 Sudoeste 27 Sudoeste 1 -- -- 96
2020-01-17 08:00:00 6.3 15 Sudoeste 33 Oeste 0 -- -- 90
2020-01-17 07:00:00 6.2 15 Sudoeste 33 Sudoeste 0 -- -- 90
2020-01-17 06:00:00 6.1 16 Sudoeste 38 Sudoeste 0 -- -- 89
2020-01-17 05:00:00 5.7 15 Sudoeste 28 Sudoeste 0 -- -- 91
2020-01-17 04:00:00 5.8 11 Sudoeste 28 Sudoeste 0 -- -- 89
2020-01-17 03:00:00 6.1 12 Sudoeste 25 Sudoeste 0 -- -- 89
2020-01-17 02:00:00 6.4 14 Sudoeste 30 Sudoeste 0 -- -- 86
2020-01-17 01:00:00 6.4 4 Sudoeste 18 Sudoeste 0 -- -- 82
2020-01-17 00:00:00 7.6 12 Sudoeste 28 Sur 0 -- -- 82
2020-01-16 23:00:00 7.4 17 Sur 46 Sur 0 -- -- 76
2020-01-16 22:00:00 8 25 Sur 46 Sur 0.2 -- -- 70
2020-01-16 21:00:00 9 15 Sudoeste 39 Sudoeste 0 -- -- 61
2020-01-16 20:00:00 9.4 23 Sudoeste 47 Sudoeste 0 -- -- 53
2020-01-16 19:00:00 9.1 20 Sudoeste 43 Sudoeste 0 -- -- 53
2020-01-16 18:00:00 9.8 13 Sudoeste 32 Sur 0 -- -- 49
2020-01-16 17:00:00 9.9 15 Sudoeste 28 Sudoeste 0 -- -- 59
2020-01-16 16:00:00 10 9 Sudoeste 35 Sudoeste 0 -- -- 63
2020-01-16 15:00:00 11.2 22 Sudoeste 38 Oeste 0 -- -- 59
2020-01-16 14:00:00 12.2 12 Sudoeste 32 Sudoeste 0 -- -- 51
2020-01-16 13:00:00 11.3 14 Sudoeste 33 Sudoeste 0 -- -- 62
2020-01-16 12:00:00 11.5 14 Sudoeste 37 Sur 0 -- -- 54
2020-01-16 11:00:00 9.7 8 Sudoeste 22 Sudoeste 0 -- -- 77
2020-01-16 10:00:00 6.7 3 Sudoeste 7 Sudeste 0 -- -- 100
2020-01-16 09:00:00 5.2 0 Calma 8 Este 0 -- -- 97
2020-01-16 08:00:00 6.6 5 Sudoeste 14 Sudoeste 0 -- -- 98
2020-01-16 07:00:00 5 0 Calma 12 Sudoeste 0 -- -- 96
2020-01-16 06:00:00 5.7 6 Sudoeste 17 Sudoeste 0 -- -- 99
2020-01-16 05:00:00 2.6 3 Sudoeste 11 Sudoeste 0 -- -- 97
2020-01-16 04:00:00 3.3 2 Sudeste 12 Sudoeste 0 -- -- 94
2020-01-16 03:00:00 5 2 Sur 10 Oeste 0 -- -- 93
2020-01-16 02:00:00 6.5 7 Sudoeste 12 Sudoeste 0 -- -- 94
2020-01-16 01:00:00 6.9 5 Sur 18 Sur 0 -- -- 88
2020-01-16 00:00:00 8.3 14 Sur 22 Sur 0 -- -- 85
2020-01-15 23:00:00 7.7 7 Sudoeste 15 Sudoeste 0 -- -- 86
2020-01-15 22:00:00 8 6 Sudoeste 17 Sudoeste 0 -- -- 84
2020-01-15 21:00:00 7.5 6 Sur 16 Sudoeste 0 -- -- 88
2020-01-15 20:00:00 8.7 9 Sudoeste 25 Sudoeste 0 -- -- 83
2020-01-15 19:00:00 9 10 Sudoeste 26 Sudoeste 0 -- -- 83
2020-01-15 18:00:00 9.7 16 Sudoeste 32 Sudoeste 0 -- -- 83
2020-01-15 17:00:00 9.6 15 Sudoeste 35 Sudoeste 0 -- -- 86
2020-01-15 16:00:00 9.6 15 Sudoeste 37 Sudoeste 0.2 -- -- 87
2020-01-15 15:00:00 10 19 Sudoeste 40 Sudoeste 0 -- -- 85
2020-01-15 14:00:00 9.8 17 Sudoeste 40 Sudoeste 0 -- -- 88
2020-01-15 13:00:00 8 12 Sudoeste 27 Sudoeste 1.4 -- -- 94
2020-01-15 12:00:00 7.8 16 Sudoeste 27 Sudoeste 0.2 -- -- 90
2020-01-15 11:00:00 8 13 Sudoeste 28 Sur 0 -- -- 79
2020-01-15 10:00:00 7 9 Sudoeste 21 Sudoeste 0 -- -- 85
2020-01-15 09:00:00 7 7 Sudoeste 31 Sur 0 -- -- 81
2020-01-15 08:00:00 6.9 14 Sudoeste 39 Sur 0 -- -- 81
2020-01-15 07:00:00 7.1 19 Sur 39 Sudoeste 0 -- -- 77
2020-01-15 06:00:00 7.1 18 Sudoeste 44 Sudoeste 0 -- -- 72
2020-01-15 05:00:00 6.4 12 Sur 37 Sur 0 -- -- 72
2020-01-15 04:00:00 6.6 15 Sur 45 Sur 0 -- -- 75
2020-01-15 03:00:00 6.4 22 Sur 39 Sudoeste 0 -- -- 78
2020-01-15 02:00:00 5.6 10 Sur 17 Sur 0 -- -- 87
2020-01-15 01:00:00 6.3 9 Sudoeste 27 Sur 0.2 -- -- 91
2020-01-15 00:00:00 6.5 16 Sur 30 Sur 0 -- -- 88
2020-01-14 23:00:00 6.9 13 Sur 27 Sur 0 -- -- 83
2020-01-14 22:00:00 4.9 0 Calma 22 Sur 0 -- -- 88
2020-01-14 21:00:00 5 10 Sudoeste 24 Sudoeste 0 -- -- 89
2020-01-14 20:00:00 5.1 9 Sudoeste 23 Sudoeste 0 -- -- 86
2020-01-14 19:00:00 6.2 12 Sudoeste 27 Sudoeste 0 -- -- 80
2020-01-14 18:00:00 6.5 16 Sudoeste 33 Sudoeste 0 -- -- 80
2020-01-14 17:00:00 8.5 12 Sudoeste 24 Sur 0 -- -- 70
2020-01-14 16:00:00 7.8 17 Sudoeste 28 Sudoeste 0 -- -- 75
2020-01-14 15:00:00 7.4 13 Oeste 26 Sudoeste 0 -- -- 75
2020-01-14 14:00:00 8 9 Sudoeste 22 Sudoeste 0 -- -- 73
2020-01-14 13:00:00 6.2 9 Oeste 22 Oeste 0 -- -- 76
2020-01-14 12:00:00 6.3 9 Sudoeste 15 Sudoeste 0 -- -- 75
2020-01-14 11:00:00 4.5 5 Sur 18 Sur 0 -- -- 80
2020-01-14 10:00:00 2.6 8 Sur 14 Sur 0 -- -- 85
2020-01-14 09:00:00 0.5 4 Sur 17 Sur 0 -- -- 91
2020-01-14 08:00:00 1.1 8 Sur 16 Sur 0 -- -- 92
2020-01-14 07:00:00 1.6 5 Sudoeste 13 Sudoeste 0 -- -- 92
2020-01-14 06:00:00 -0.9 3 Sur 9 Sur 0 -- -- 99
2020-01-14 05:00:00 -2.7 0 Calma 4 Norte 0 -- -- 94
2020-01-14 04:00:00 -1.8 2 Sudoeste 10 Norte 0 -- -- 92
2020-01-14 03:00:00 -0.4 5 Sudoeste 13 Sudoeste 0 -- -- 90
2020-01-14 02:00:00 -0.4 3 Sur 13 Sudoeste 0 -- -- 93
2020-01-14 01:00:00 0.4 4 Sudoeste 11 Sudoeste 0 -- -- 94
2020-01-14 00:00:00 -0.2 0 Calma 19 Oeste 0 -- -- 87
2020-01-13 23:00:00 0.6 3 Este 9 Sudoeste 0 -- -- 91
2020-01-13 22:00:00 1.4 4 Sudoeste 20 Sudoeste 0 -- -- 87
2020-01-13 21:00:00 2.7 13 Sudoeste 28 Sudoeste 0 -- -- 81
2020-01-13 20:00:00 2.8 9 Sudoeste 14 Sudoeste 0 -- -- 79
2020-01-13 19:00:00 4.5 10 Sudoeste 18 Sudoeste 0 -- -- 65
2020-01-13 18:00:00 6.8 11 Sudoeste 22 Sudoeste 0 -- -- 48
2020-01-13 17:00:00 8.8 10 Sudoeste 30 Sur 0 -- -- 49
2020-01-13 16:00:00 7.9 14 Sudoeste 22 Oeste 0 -- -- 59
2020-01-13 15:00:00 7.6 10 Sudoeste 22 Sudoeste 0 -- -- 58
2020-01-13 14:00:00 6.9 14 Sudoeste 25 Sudoeste 0 -- -- 62
2020-01-13 13:00:00 6.2 9 Sudoeste 18 Sudoeste 0 -- -- 68
2020-01-13 12:00:00 5.1 8 Sudoeste 20 Sur 0 -- -- 72
2020-01-13 11:00:00 3.4 8 Sudoeste 18 Sudoeste 0.2 -- -- 81
2020-01-13 10:00:00 -0.7 0 Calma 6 Oeste 0 -- -- 94
2020-01-13 09:00:00 -2.8 2 Sur 8 Sudoeste 0 -- -- 97
2020-01-13 08:00:00 -3.9 2 Sudeste 4 Sudeste 0 -- -- 95
2020-01-13 07:00:00 -3.7 0 Calma 4 Sudeste 0 -- -- 96
2020-01-13 06:00:00 -4.2 3 Sur 6 Sudeste 0 -- -- 98
2020-01-13 05:00:00 -4.5 0 Calma 3 Sur 0 -- -- 97
2020-01-13 04:00:00 -5.1 0 Calma 2 Sur 0 -- -- 96
2020-01-13 03:00:00 -4.7 0 Calma 2 Sur 0 -- -- 94
2020-01-13 02:00:00 -3.7 0 Calma 4 Sur 0 -- -- 96
2020-01-13 01:00:00 -3.5 3 Sur 4 Sur 0 -- -- 97
2020-01-13 00:00:00 -3.3 0 Calma 3 Sur 0 -- -- 97
2020-01-12 23:00:00 -3.6 2 Sur 4 Sur 0 -- -- 95
2020-01-12 22:00:00 -3.2 0 Calma 2 Sudeste 0 -- -- 94
2020-01-12 21:00:00 -2.3 0 Calma 3 Sur 0 -- -- 95
2020-01-12 20:00:00 -1.5 0 Calma 3 Sur 0 -- -- 93
2020-01-12 19:00:00 1.1 0 Calma 4 Noroeste 0 -- -- 85
2020-01-12 18:00:00 5 3 Noroeste 7 Norte 0 -- -- 75
2020-01-12 17:00:00 6.3 0 Calma 9 Nordeste 0 -- -- 69
2020-01-12 16:00:00 7 6 Nordeste 11 Nordeste 0 -- -- 63
2020-01-12 15:00:00 6.8 5 Norte 10 Nordeste 0 -- -- 64
2020-01-12 14:00:00 5.8 3 Nordeste 9 Norte 0 -- -- 72
2020-01-12 13:00:00 4.3 4 Norte 13 Noroeste 0 -- -- 77
2020-01-12 12:00:00 3.1 0 Calma 10 Norte 0 -- -- 80
2020-01-12 11:00:00 1.1 5 Norte 8 Norte 0.2 -- -- 90
2020-01-12 10:00:00 -2.7 0 Calma 2 Sur 0 -- -- 97
2020-01-12 09:00:00 -5.9 2 Sur 4 Sur 0 -- -- 98
2020-01-12 08:00:00 -6.3 0 Calma 3 Sudeste 0 -- -- 97
2020-01-12 07:00:00 -5.9 0 Calma 2 Sur 0 -- -- 96
2020-01-12 06:00:00 -5.7 0 Calma 0 Calma 0 -- -- 97
2020-01-12 05:00:00 -5.2 0 Calma 3 Sur 0 -- -- 98
2020-01-12 04:00:00 -5.6 0 Calma 4 Sur 0 -- -- 97
2020-01-12 03:00:00 -6 0 Calma -- -- 0 -- -- 96
2020-01-12 02:00:00 -5.9 0 Calma -- -- 0 -- -- 96
2020-01-12 01:00:00 -5.5 0 Calma 0 Calma 0 -- -- 96
2020-01-12 00:00:00 -4.8 0 Calma 2 Sudoeste 0 -- -- 96
2020-01-11 23:00:00 -3.7 0 Calma 4 Sudoeste 0 -- -- 98
2020-01-11 22:00:00 -2.1 0 Calma 2 Oeste 0 -- -- 98
2020-01-11 21:00:00 -0.9 0 Calma 6 Sur 0 -- -- 99
2020-01-11 20:00:00 -0.9 0 Calma 5 Norte 0 -- -- 97
2020-01-11 19:00:00 1.3 0 Calma 7 Noroeste 0 -- -- 91
2020-01-11 18:00:00 4 2 Noroeste 9 Noroeste 0 -- -- 87
2020-01-11 17:00:00 5.6 5 Norte 10 Norte 0 -- -- 83
2020-01-11 16:00:00 5.1 6 Nordeste 10 Nordeste 0 -- -- 85
2020-01-11 15:00:00 3.4 3 Norte 10 Norte 0 -- -- 92
2020-01-11 14:00:00 1.5 3 Nordeste 6 Este 0 -- -- 98
2020-01-11 13:00:00 0.1 3 Nordeste 7 Nordeste 0 -- -- 100
2020-01-11 12:00:00 -1 0 Calma 9 Norte 0 -- -- 100
2020-01-11 11:00:00 -1.6 5 Norte 7 Norte 0 -- -- 98
2020-01-11 10:00:00 -2.4 0 Calma 4 Este 0 -- -- 99
2020-01-11 09:00:00 -3.2 3 Nordeste 5 Nordeste 0 -- -- 99
2020-01-11 08:00:00 -2.3 0 Calma 4 Norte 0 -- -- 100
2020-01-11 07:00:00 -2.5 0 Calma 5 Este 0 -- -- 100
2020-01-11 06:00:00 -4.8 0 Calma 0 Calma 0 -- -- 96
2020-01-11 05:00:00 -4 0 Calma 3 Sudeste 0 -- -- 97
2020-01-11 04:00:00 -3.3 0 Calma 3 Sudeste 0 -- -- 98
2020-01-11 03:00:00 -3.6 2 Sur 4 Sur 0 -- -- 97
2020-01-11 02:00:00 -2.8 0 Calma 5 Este 0 -- -- 95
2020-01-11 01:00:00 -2.4 0 Calma 4 Nordeste 0 -- -- 97
2020-01-11 00:00:00 -2.2 0 Calma 5 Sur 0 -- -- 92
2020-01-10 23:00:00 -1.6 3 Sur 5 Sudeste 0 -- -- 94
2020-01-10 22:00:00 0.5 0 Calma 4 Este 0 -- -- 88
2020-01-10 21:00:00 2.9 3 Este 8 Nordeste 0 -- -- 88
2020-01-10 20:00:00 3.4 4 Nordeste 13 Nordeste 0 -- -- 88
2020-01-10 19:00:00 2.8 5 Nordeste 12 Nordeste 0 -- -- 87
2020-01-10 18:00:00 4.4 8 Nordeste 18 Nordeste 0 -- -- 78
2020-01-10 17:00:00 5.7 13 Nordeste 27 Nordeste 0 -- -- 70
2020-01-10 16:00:00 6.1 13 Nordeste 22 Nordeste 0 -- -- 71
2020-01-10 15:00:00 5.7 14 Nordeste 24 Nordeste 0 -- -- 72
2020-01-10 14:00:00 5.6 10 Nordeste 17 Nordeste 0 -- -- 76
2020-01-10 13:00:00 4.8 8 Nordeste 17 Nordeste 0 -- -- 77
2020-01-10 12:00:00 4 8 Norte 12 Norte 0 -- -- 79
2020-01-10 11:00:00 3.3 6 Este 10 Este 0 -- -- 81
2020-01-10 10:00:00 -0.9 0 Calma 5 Sur 0 -- -- 99
2020-01-10 09:00:00 -3.9 3 Sur 4 Sudeste 0 -- -- 98
2020-01-10 08:00:00 -3.5 0 Calma 4 Sudoeste 0 -- -- 97
2020-01-10 07:00:00 -2.9 2 Sur 5 Sur 0 -- -- 98
2020-01-10 06:00:00 -2.9 3 Sur 5 Sudeste 0 -- -- 97
2020-01-10 05:00:00 -2 0 Calma 5 Sur 0 -- -- 97
2020-01-10 04:00:00 -1 2 Sur 5 Sur 0 -- -- 97
2020-01-10 03:00:00 0.8 0 Calma 10 Oeste 0 -- -- 93
2020-01-10 02:00:00 2.7 3 Oeste 11 Oeste 0 -- -- 94
2020-01-10 01:00:00 3.6 5 Sudoeste 10 Oeste 0 -- -- 94
2020-01-10 00:00:00 4.4 5 Oeste 11 Oeste 0 -- -- 92
2020-01-09 23:00:00 5.8 5 Oeste 14 Oeste 0 -- -- 86
2020-01-09 22:00:00 6.6 4 Sudoeste 13 Oeste 0 -- -- 84
2020-01-09 21:00:00 7.8 8 Oeste 31 Noroeste 0 -- -- 83
2020-01-09 20:00:00 9.7 10 Sudoeste 18 Sudoeste 0 -- -- 83
2020-01-09 19:00:00 9.5 4 Sudoeste 21 Oeste 0.6 -- -- 82
2020-01-09 18:00:00 11 15 Oeste 35 Oeste 0 -- -- 79
2020-01-09 17:00:00 12.2 10 Sudoeste 28 Sudoeste 0 -- -- 74
2020-01-09 16:00:00 12.3 11 Sudoeste 19 Sudoeste 0 -- -- 71
2020-01-09 15:00:00 12.1 9 Oeste 21 Sudoeste 0 -- -- 75
2020-01-09 14:00:00 12.4 9 Sudoeste 24 Sudoeste 0 -- -- 72
2020-01-09 13:00:00 11 10 Sudoeste 18 Sudoeste 0 -- -- 79
2020-01-09 12:00:00 10.3 8 Sudoeste 15 Sudoeste 0 -- -- 76
2020-01-09 11:00:00 6.5 4 Sudoeste 10 Sur 0 -- -- 78
2020-01-09 10:00:00 3.4 4 Sur 8 Sur 0 -- -- 84
2020-01-09 09:00:00 -0.7 2 Sur 8 Noroeste 0 -- -- 95
2020-01-09 08:00:00 0 2 Noroeste 9 Sur 0 -- -- 92
2020-01-09 07:00:00 -0.2 3 Sudeste 8 Sur 0 -- -- 92
2020-01-09 06:00:00 -0.2 4 Sur 8 Oeste 0 -- -- 98
2020-01-09 05:00:00 -0.7 0 Calma 4 Oeste 0 -- -- 99
2020-01-09 04:00:00 -0.8 0 Calma 6 Sudeste 0 -- -- 98
2020-01-09 03:00:00 -0.8 0 Calma 5 Sur 0 -- -- 98
2020-01-09 02:00:00 -0.9 2 Sur 5 Sur 0 -- -- 97
2020-01-09 01:00:00 -0.3 0 Calma 3 Sur 0 -- -- 98
2020-01-09 00:00:00 -0.1 0 Calma 3 Sur 0 -- -- 97
2020-01-08 23:00:00 0.3 0 Calma 5 Sur 0 -- -- 97
2020-01-08 22:00:00 0.2 3 Sur 5 Sur 0 -- -- 97
2020-01-08 21:00:00 0.4 0 Calma 4 Sur 0 -- -- 94
2020-01-08 20:00:00 1.8 0 Calma 3 Sudoeste 0 -- -- 94
2020-01-08 19:00:00 4.2 0 Calma 4 Noroeste 0 -- -- 83
2020-01-08 18:00:00 7.5 0 Calma 7 Norte 0 -- -- 76
2020-01-08 17:00:00 9.2 5 Norte 12 Norte 0 -- -- 73
2020-01-08 16:00:00 10.4 7 Norte 10 Norte 0 -- -- 63
2020-01-08 15:00:00 9 4 Norte 8 Norte 0 -- -- 75
2020-01-08 14:00:00 6.4 2 Norte 11 Norte 0 -- -- 80
2020-01-08 13:00:00 4.7 4 Norte 10 Noroeste 0 -- -- 82
2020-01-08 12:00:00 2.3 5 Norte 8 Norte 0 -- -- 89
2020-01-08 11:00:00 -0.4 0 Calma 2 Norte 0.2 -- -- 92
2020-01-08 10:00:00 -4.4 0 Calma 2 Norte 0 -- -- 97
2020-01-08 09:00:00 -5.3 0 Calma -- -- 0 -- -- 97
2020-01-08 08:00:00 -5.4 0 Calma 2 Sur 0 -- -- 95
2020-01-08 07:00:00 -4.8 0 Calma 3 Sudeste 0 -- -- 96
2020-01-08 06:00:00 -4.4 0 Calma 3 Sur 0 -- -- 95
2020-01-08 05:00:00 -3.8 2 Sur 4 Sudoeste 0 -- -- 97
2020-01-08 04:00:00 -3.9 0 Calma 2 Sur 0 -- -- 97
2020-01-08 03:00:00 -3.7 0 Calma 5 Sur 0 -- -- 98
2020-01-08 02:00:00 -3.8 0 Calma 4 Sur 0 -- -- 97
2020-01-08 01:00:00 -4.3 0 Calma -- -- 0 -- -- 95
2020-01-08 00:00:00 -3.8 0 Calma 0 Calma 0 -- -- 96
2020-01-07 23:00:00 -3.2 0 Calma 3 Sur 0 -- -- 98
2020-01-07 22:00:00 -2.4 0 Calma 3 Sudeste 0 -- -- 98
2020-01-07 21:00:00 -2 0 Calma 4 Sudeste 0 -- -- 94
2020-01-07 20:00:00 -0.8 3 Sur 5 Sur 0 -- -- 95
2020-01-07 19:00:00 2.3 0 Calma 4 Noroeste 0 -- -- 88
2020-01-07 18:00:00 6.1 3 Norte 4 Norte 0 -- -- 84
2020-01-07 17:00:00 7 4 Norte 9 Norte 0 -- -- 82
2020-01-07 16:00:00 7.7 5 Norte 9 Noroeste 0 -- -- 79
2020-01-07 15:00:00 7.1 6 Norte 12 Norte 0 -- -- 79
2020-01-07 14:00:00 6.8 0 Calma 8 Norte 0 -- -- 71
2020-01-07 13:00:00 2.4 3 Norte 5 Norte 0 -- -- 91
2020-01-07 12:00:00 -1.2 0 Calma 8 Norte 0 -- -- 96
2020-01-07 11:00:00 -2.6 0 Calma 3 Norte 0 -- -- 97
2020-01-07 10:00:00 -4.9 0 Calma 3 Norte 0 -- -- 100
2020-01-07 09:00:00 -5.6 0 Calma 3 Norte 0 -- -- 98
2020-01-07 08:00:00 -5.3 0 Calma 2 Noroeste 0 -- -- 97
2020-01-07 07:00:00 -5 0 Calma 3 Sudeste 0 -- -- 99
2020-01-07 06:00:00 -4.3 0 Calma 4 Noroeste 0 -- -- 99
2020-01-07 05:00:00 -4.3 0 Calma 5 Norte 0 -- -- 99
2020-01-07 04:00:00 -3.6 0 Calma 4 Norte 0 -- -- 97
2020-01-07 03:00:00 -3.5 0 Calma 6 Norte 0 -- -- 96
2020-01-07 02:00:00 -2.7 0 Calma 5 Sur 0 -- -- 95
2020-01-07 01:00:00 -2.6 0 Calma 3 Sur 0 -- -- 94
2020-01-07 00:00:00 -1.7 0 Calma 4 Sudeste 0 -- -- 93
2020-01-06 23:00:00 -1.9 2 Sur 4 Sur 0 -- -- 95
2020-01-06 22:00:00 -1.1 3 Sur 5 Sur 0 -- -- 94
2020-01-06 21:00:00 0.4 3 Sur 5 Sur 0 -- -- 92
2020-01-06 20:00:00 2.1 3 Sur 6 Sur 0 -- -- 95
2020-01-06 19:00:00 4.6 0 Calma 6 Norte 0 -- -- 84
2020-01-06 18:00:00 6.8 4 Nordeste 13 Norte 0 -- -- 83
2020-01-06 17:00:00 9.8 6 Norte 13 Norte 0 -- -- 70
2020-01-06 16:00:00 12.7 5 Noroeste 12 Noroeste 0 -- -- 49
2020-01-06 15:00:00 13.6 4 Noroeste 8 Noroeste 0 -- -- 39
2020-01-06 14:00:00 12.2 4 Sudoeste 8 Sudoeste 0 -- -- 39
2020-01-06 13:00:00 6.8 0 Calma 4 Norte 0 -- -- 84
2020-01-06 12:00:00 3.2 2 Nordeste 7 Norte 0 -- -- 91
2020-01-06 11:00:00 0.9 0 Calma 0 Calma 0 -- -- 98
2020-01-06 10:00:00 -2 0 Calma 3 Noroeste 0 -- -- 100